Time;durP1;ratioP1;P1;durP2;ratioP2;P2;SDS_P1;SDS_P2;PMS_P1;PMS_P2;Temp;Humidity;BMP_temperature;BMP_pressure;BME280_temperature;BME280_humidity;BME280_pressure;Samples;Min_cycle;Max_cycle;Signal;HPM_P1;HPM_P2
2023/08/14 00:02:02;;;;;;;6.35;2.20;;;;;;;;;;5012219;28;20041;-71
2023/08/14 00:04:28;;;;;;;4.25;2.05;;;;;;;;;;5030763;28;20033;-72
2023/08/14 00:06:54;;;;;;;2.83;1.88;;;;;;;;;;5029786;28;21451;-72
2023/08/14 00:09:21;;;;;;;4.47;2.33;;;;;;;;;;5028358;28;20522;-72
2023/08/14 00:11:47;;;;;;;5.78;2.25;;;;;;;;;;5037446;28;20207;-72
2023/08/14 00:14:13;;;;;;;5.80;2.08;;;;;;;;;;5034142;28;20045;-71
2023/08/14 00:16:39;;;;;;;5.22;1.88;;;;;;;;;;5028222;28;20154;-71
2023/08/14 00:19:05;;;;;;;10.05;2.42;;;;;;;;;;5029953;28;20107;-71
2023/08/14 00:21:31;;;;;;;3.22;2.13;;;;;;;;;;5028396;28;20033;-71
2023/08/14 00:23:57;;;;;;;3.40;2.25;;;;;;;;;;5030184;28;20037;-72
2023/08/14 00:26:23;;;;;;;3.58;1.90;;;;;;;;;;5031669;28;20515;-71
2023/08/14 00:28:49;;;;;;;8.52;2.22;;;;;;;;;;5031186;28;20156;-72
2023/08/14 00:31:16;;;;;;;7.13;3.55;;;;;;;;;;5026523;28;20068;-71
2023/08/14 00:33:42;;;;;;;6.43;2.83;;;;;;;;;;5030035;28;20033;-71
2023/08/14 00:36:08;;;;;;;3.08;2.30;;;;;;;;;;5025685;28;20172;-71
2023/08/14 00:38:35;;;;;;;4.82;2.45;;;;;;;;;;5023603;28;20253;-70
2023/08/14 00:41:01;;;;;;;4.90;2.28;;;;;;;;;;5028883;28;20030;-72
2023/08/14 00:43:27;;;;;;;6.22;3.00;;;;;;;;;;5035198;28;20116;-73
2023/08/14 00:45:58;;;;;;;5.68;3.20;;;;;;;;;;5025230;28;20291;-73
2023/08/14 00:48:24;;;;;;;7.15;2.83;;;;;;;;;;5026927;28;20057;-72
2023/08/14 00:50:50;;;;;;;4.32;2.47;;;;;;;;;;5028162;28;20040;-73
2023/08/14 00:53:18;;;;;;;4.00;2.35;;;;;;;;;;5031381;28;20391;-72
2023/08/14 00:55:45;;;;;;;5.75;3.97;;;;;;;;;;5024064;28;20052;-73
2023/08/14 00:58:12;;;;;;;4.25;3.20;;;;;;;;;;5044347;28;20111;-73
2023/08/14 01:00:38;;;;;;;8.90;4.38;;;;;;;;;;5028795;28;20493;-74
2023/08/14 01:03:04;;;;;;;5.35;2.83;;;;;;;;;;5028275;28;20042;-74
2023/08/14 01:05:31;;;;;;;4.53;3.33;;;;;;;;;;5026602;28;20064;-72
2023/08/14 01:07:57;;;;;;;6.60;3.03;;;;;;;;;;5035004;28;20126;-72
2023/08/14 01:10:27;;;;;;;4.15;2.97;;;;;;;;;;5034054;28;20045;-74
2023/08/14 01:13:03;;;;;;;4.78;3.22;;;;;;;;;;5029914;28;20037;-72
2023/08/14 01:15:28;;;;;;;8.20;3.38;;;;;;;;;;5028204;28;20343;-73
2023/08/14 01:17:58;;;;;;;3.65;2.70;;;;;;;;;;5028105;28;20108;-74
2023/08/14 01:20:25;;;;;;;6.35;3.33;;;;;;;;;;5027107;28;20041;-73
2023/08/14 01:23:21;;;;;;;4.00;3.58;;;15.80;99.90;;;;;;5030098;28;20030;-73
2023/08/14 01:25:48;;;;;;;6.53;3.92;;;;;;;;;;5015141;28;20041;-72
2023/08/14 01:28:14;;;;;;;7.53;4.35;;;;;;;;;;5027128;28;20037;-75
2023/08/14 01:30:40;;;;;;;5.80;4.20;;;;;;;;;;5030180;28;20060;-74
2023/08/14 01:33:06;;;;;;;7.57;5.10;;;;;;;;;;5028358;28;20046;-72
2023/08/14 01:35:38;;;;;;;6.03;3.45;;;;;;;;;;5014089;28;20036;-70
2023/08/14 01:38:04;;;;;;;;;;;;;;;;;;5030659;28;20117;-72
2023/08/14 01:40:45;;;;;;;4.38;3.72;;;;;;;;;;5042468;28;19999;-72
2023/08/14 01:43:15;;;;;;;7.07;3.30;;;;;;;;;;5027593;28;20053;-71
2023/08/14 01:45:41;;;;;;;5.30;3.50;;;;;;;;;;5028125;28;20048;-72
2023/08/14 01:48:08;;;;;;;6.05;3.45;;;;;;;;;;5042725;28;20029;-72
2023/08/14 01:50:34;;;;;;;12.82;5.07;;;;;;;;;;5016569;28;20049;-72
2023/08/14 01:53:00;;;;;;;7.00;3.20;;;;;;;;;;5028158;28;20032;-71
2023/08/14 01:55:26;;;;;;;4.90;3.78;;;;;;;;;;5028754;28;20041;-72
2023/08/14 01:57:53;;;;;;;6.18;3.63;;;;;;;;;;5024135;28;20470;-72
2023/08/14 02:00:19;;;;;;;8.65;3.50;;;;;;;;;;5027734;28;20034;-72
2023/08/14 02:02:45;;;;;;;3.90;3.53;;;;;;;;;;5028122;28;20037;-71
2023/08/14 02:05:11;;;;;;;8.88;3.88;;;;;;;;;;5029838;28;20034;-72
2023/08/14 02:07:37;;;;;;;7.93;3.70;;;;;;;;;;5026988;28;20045;-72
2023/08/14 02:10:03;;;;;;;8.07;4.10;;;;;;;;;;5028647;28;20049;-71
2023/08/14 02:12:30;;;;;;;6.75;3.58;;;;;;;;;;5026258;28;20037;-72
2023/08/14 02:14:57;;;;;;;6.63;3.65;;;;;;;;;;5028987;28;20021;-71
2023/08/14 02:17:23;;;;;;;6.72;4.10;;;;;;;;;;5027444;28;20033;-71
2023/08/14 02:19:49;;;;;;;7.13;3.67;;;;;;;;;;5026911;28;20399;-71
2023/08/14 02:22:15;;;;;;;5.53;3.75;;;;;;;;;;5029829;28;20091;-71
2023/08/14 02:24:41;;;;;;;6.25;3.50;;;;;;;;;;5026636;28;20048;-72
2023/08/14 02:27:07;;;;;;;8.43;4.63;;;;;;;;;;5024465;28;20065;-72
2023/08/14 02:29:33;;;;;;;7.28;4.28;;;;;;;;;;5022185;28;20045;-71
2023/08/14 02:31:59;;;;;;;7.85;4.10;;;;;;;;;;5033695;28;20117;-71
2023/08/14 02:34:56;;;;;;;6.13;4.00;;;;;;;;;;5024974;28;20034;-71
2023/08/14 02:37:22;;;;;;;6.30;4.03;;;;;;;;;;5015909;28;20030;-71
2023/08/14 02:39:48;;;;;;;6.97;4.10;;;;;;;;;;5026746;28;20069;-71
2023/08/14 02:42:15;;;;;;;8.35;4.57;;;;;;;;;;5026029;28;20040;-71
2023/08/14 02:44:41;;;;;;;7.72;4.40;;;;;;;;;;5025457;28;20047;-72
2023/08/14 02:47:07;;;;;;;7.22;4.80;;;;;;;;;;5026135;28;20435;-72
2023/08/14 02:49:33;;;;;;;11.65;3.95;;;;;;;;;;5027568;28;20041;-72
2023/08/14 02:52:00;;;;;;;9.48;4.25;;;;;;;;;;5028727;28;20040;-72
2023/08/14 02:54:26;;;;;;;6.28;4.47;;;;;;;;;;5026594;28;20044;-71
2023/08/14 02:56:52;;;;;;;8.38;4.82;;;;;;;;;;5027832;28;20540;-71
2023/08/14 02:59:18;;;;;;;11.07;5.18;;;;;;;;;;5028146;28;20054;-71
2023/08/14 03:01:44;;;;;;;6.82;4.43;;;;;;;;;;5027601;28;20087;-71
2023/08/14 03:04:10;;;;;;;5.53;4.70;;;;;;;;;;5025710;28;20040;-71
2023/08/14 03:06:36;;;;;;;8.65;5.22;;;;;;;;;;5026648;28;20034;-72
2023/08/14 03:09:02;;;;;;;11.73;4.60;;;;;;;;;;5027556;28;20363;-71
2023/08/14 03:11:29;;;;;;;8.52;4.88;;;;;;;;;;5027708;28;20037;-71
2023/08/14 03:13:55;;;;;;;6.38;5.35;;;;;;;;;;5027155;28;20095;-71
2023/08/14 03:16:21;;;;;;;9.70;6.30;;;;;;;;;;5020725;28;20045;-71
2023/08/14 03:18:47;;;;;;;7.78;5.75;;;;;;;;;;5025316;28;20040;-71
2023/08/14 03:21:13;;;;;;;10.75;6.28;;;;;;;;;;5027881;28;20025;-71
2023/08/14 03:23:39;;;;;;;9.65;5.93;;;;;;;;;;5024652;28;20049;-71
2023/08/14 03:26:05;;;;;;;8.85;5.88;;;;;;;;;;5025973;28;20065;-71
2023/08/14 03:28:32;;;;;;;17.77;6.72;;;;;;;;;;5028092;28;20506;-71
2023/08/14 03:30:58;;;;;;;11.63;6.35;;;;;;;;;;5027608;28;20038;-71
2023/08/14 03:33:24;;;;;;;8.48;6.00;;;;;;;;;;5026121;28;20740;-71
2023/08/14 03:35:53;;;;;;;7.38;6.10;;;;;;;;;;5027564;28;20030;-72
2023/08/14 03:38:19;;;;;;;11.60;6.68;;;;;;;;;;5026496;28;20033;-72
2023/08/14 03:40:45;;;;;;;8.13;6.63;;;;;;;;;;5026012;28;20042;-71
2023/08/14 03:43:11;;;;;;;12.73;7.25;;;;;;;;;;5042708;28;20033;-71
2023/08/14 03:45:37;;;;;;;10.57;7.20;;;;;;;;;;5023311;28;20026;-71
2023/08/14 03:48:04;;;;;;;13.98;7.68;;;;;;;;;;5023236;28;20080;-71
2023/08/14 03:50:30;;;;;;;7.95;7.07;;;;;;;;;;5027439;28;20451;-71
2023/08/14 03:52:56;;;;;;;10.88;7.30;;;;;;;;;;5027477;28;20064;-72
2023/08/14 03:55:22;;;;;;;12.52;7.68;;;;;;;;;;5027997;28;20480;-71
2023/08/14 03:57:48;;;;;;;13.40;7.32;;;;;;;;;;5031902;28;20543;-72
2023/08/14 04:00:14;;;;;;;10.52;7.15;;;;;;;;;;5026368;28;20130;-71
2023/08/14 04:02:41;;;;;;;12.20;6.85;;;;;;;;;;5028460;28;20499;-71
2023/08/14 04:05:07;;;;;;;14.43;7.65;;;;;;;;;;5041313;28;20033;-71
2023/08/14 04:07:33;;;;;;;7.82;7.00;;;;;;;;;;5026654;28;20037;-72
2023/08/14 04:09:59;;;;;;;11.38;7.15;;;;;;;;;;5024891;28;20033;-71
2023/08/14 04:12:25;;;;;;;11.40;8.00;;;;;;;;;;5024681;28;20494;-71
2023/08/14 04:14:52;;;;;;;8.65;7.32;;;;;;;;;;5010095;28;20037;-71
2023/08/14 04:17:18;;;;;;;9.55;8.15;;;;;;;;;;5046236;28;20116;-71
2023/08/14 04:19:44;;;;;;;11.82;7.25;;;;;;;;;;5030652;28;20041;-73
2023/08/14 04:22:10;;;;;;;13.35;7.78;;;;;;;;;;5026444;28;20044;-70
2023/08/14 04:24:36;;;;;;;11.52;7.53;;;;;;;;;;5030228;28;20108;-70
2023/08/14 04:27:02;;;;;;;11.98;7.00;;;;;;;;;;5031430;28;20065;-71
2023/08/14 04:29:28;;;;;;;12.57;7.72;;;;;;;;;;5025780;28;20070;-71
2023/08/14 04:31:54;;;;;;;11.82;8.00;;;;;;;;;;5025369;28;20061;-71
2023/08/14 04:34:20;;;;;;;10.63;7.50;;;;;;;;;;5025867;28;20103;-71
2023/08/14 04:36:47;;;;;;;12.20;8.10;;;;;;;;;;5030955;28;20034;-71
2023/08/14 04:39:14;;;;;;;12.90;7.80;;;;;;;;;;5028657;28;20048;-71
2023/08/14 04:41:41;;;;;;;10.65;7.95;;;;;;;;;;5029633;28;20022;-71
2023/08/14 04:44:07;;;;;;;10.32;8.40;;;;;;;;;;5033025;28;20041;-71
2023/08/14 04:46:36;;;;;;;9.98;8.18;;;;;;;;;;5029834;28;20485;-71
2023/08/14 04:49:03;;;;;;;10.35;7.75;;;;;;;;;;5030567;28;20028;-71
2023/08/14 04:51:30;;;;;;;12.77;8.52;;;;;;;;;;5025784;28;20303;-71
2023/08/14 04:53:57;;;;;;;11.43;8.13;;;;;;;;;;5027181;28;20036;-71
2023/08/14 04:56:23;;;;;;;16.63;8.38;;;;;;;;;;5029249;28;20038;-71
2023/08/14 04:58:49;;;;;;;16.73;8.75;;;;;;;;;;5028034;28;20033;-71
2023/08/14 05:01:15;;;;;;;10.02;7.35;;;;;;;;;;5023141;28;20030;-71
2023/08/14 05:03:41;;;;;;;15.13;8.07;;;;;;;;;;5023484;28;20017;-71
2023/08/14 05:06:07;;;;;;;12.52;7.88;;;;;;;;;;5029918;28;20044;-71
2023/08/14 05:08:33;;;;;;;9.73;8.38;;;;;;;;;;5029466;28;20036;-71
2023/08/14 05:10:59;;;;;;;12.75;8.07;;;;;;;;;;5028455;28;20037;-71
2023/08/14 05:13:26;;;;;;;11.95;7.78;;;;;;;;;;5045577;28;20026;-71
2023/08/14 05:15:52;;;;;;;14.40;8.25;;;;;;;;;;5028157;28;20123;-71
2023/08/14 05:18:18;;;;;;;12.68;8.23;;;;;;;;;;5029183;28;20033;-71
2023/08/14 05:20:45;;;;;;;11.52;9.18;;;;;;;;;;5030572;28;20038;-71
2023/08/14 05:23:11;;;;;;;15.93;9.07;;;;;;;;;;5029194;28;20059;-71
2023/08/14 05:25:37;;;;;;;16.27;9.73;;;;;;;;;;5028305;28;20038;-71
2023/08/14 05:28:04;;;;;;;13.73;7.80;;;;;;;;;;5027574;28;20060;-71
2023/08/14 05:30:30;;;;;;;14.82;8.50;;;;;;;;;;5026491;28;20033;-71
2023/08/14 05:32:56;;;;;;;9.90;7.88;;;;;;;;;;5028862;28;20084;-71
2023/08/14 05:35:25;;;;;;;12.82;9.52;;;;;;;;;;5027818;28;20496;-71
2023/08/14 05:37:55;;;;;;;12.02;8.55;;;;;;;;;;5042310;28;20535;-72
2023/08/14 05:40:21;;;;;;;14.95;8.05;;;;;;;;;;5018134;28;20037;-71
2023/08/14 05:43:05;;;;;;;14.25;9.38;;;;;;;;;;5010667;28;20052;-71
2023/08/14 05:45:32;;;;;;;12.48;8.20;;;;;;;;;;5027240;28;20502;-71
2023/08/14 05:47:58;;;;;;;11.73;9.15;;;;;;;;;;5023668;28;20140;-71
2023/08/14 05:50:25;;;;;;;13.25;8.65;;;;;;;;;;5035518;28;20176;-71
2023/08/14 05:52:52;;;;;;;16.60;7.65;;;;;;;;;;5029004;28;20033;-71
2023/08/14 05:55:18;;;;;;;12.95;7.78;;;;;;;;;;5027855;28;20029;-71
2023/08/14 05:57:44;;;;;;;13.05;7.85;;;;;;;;;;5028236;28;20120;-72
2023/08/14 06:00:10;;;;;;;11.10;7.55;;;;;;;;;;5025980;28;20621;-72
2023/08/14 06:02:36;;;;;;;11.60;8.15;;;;;;;;;;5018279;28;20036;-71
2023/08/14 06:05:03;;;;;;;13.10;8.10;;;;;;;;;;5024840;28;20033;-71
2023/08/14 06:07:29;;;;;;;13.20;7.55;;;;;;;;;;5026835;28;20037;-71
2023/08/14 06:09:55;;;;;;;15.07;8.50;;;;;;;;;;5028197;28;20033;-72
2023/08/14 06:12:21;;;;;;;12.05;7.32;;;;;;;;;;5027121;28;20040;-72
2023/08/14 06:14:47;;;;;;;11.75;7.35;;;;;;;;;;5027221;28;20103;-72
2023/08/14 06:17:13;;;;;;;12.48;7.18;;;;;;;;;;5025912;28;20041;-72
2023/08/14 06:19:39;;;;;;;11.70;8.20;;;;;;;;;;5025730;28;20037;-71
2023/08/14 06:22:05;;;;;;;13.57;7.35;;;;;;;;;;5023743;28;20041;-71
2023/08/14 06:24:31;;;;;;;12.57;7.80;;;;;;;;;;5028284;28;20360;-72
2023/08/14 06:26:58;;;;;;;12.70;7.20;;;;;;;;;;5028157;28;20841;-71
2023/08/14 06:29:24;;;;;;;12.25;7.07;;;;;;;;;;5028098;28;20529;-72
2023/08/14 06:31:50;;;;;;;13.73;7.57;;;;;;;;;;5026834;28;20029;-72
2023/08/14 06:34:16;;;;;;;13.25;7.60;;;;;;;;;;5024779;28;20029;-71
2023/08/14 06:36:42;;;;;;;10.05;6.57;;;;;;;;;;5025643;28;20109;-71
2023/08/14 06:39:08;;;;;;;9.00;7.97;;;;;;;;;;5026891;28;20047;-71
2023/08/14 06:41:34;;;;;;;10.52;7.57;;;;;;;;;;5026346;28;20029;-72
2023/08/14 06:44:00;;;;;;;13.18;7.55;;;;;;;;;;5018499;28;20025;-72
2023/08/14 06:46:26;;;;;;;12.10;6.30;;;;;;;;;;5023996;28;20048;-73
2023/08/14 06:48:52;;;;;;;14.80;6.88;;;;;;;;;;5025355;28;20033;-74
2023/08/14 06:51:18;;;;;;;9.68;7.38;;;;;;;;;;5040040;28;20026;-73
2023/08/14 06:53:45;;;;;;;10.85;7.20;;;;;;;;;;5024610;28;20025;-72
2023/08/14 06:56:11;;;;;;;18.98;14.30;;;;;;;;;;5026292;28;20407;-75
2023/08/14 06:58:37;;;;;;;80.60;52.17;;;;;;;;;;5023970;28;20034;-74
2023/08/14 07:01:03;;;;;;;13.95;9.27;;;;;;;;;;5026577;28;20045;-75
2023/08/14 07:03:29;;;;;;;11.35;5.93;;;;;;;;;;5024455;28;20038;-72
2023/08/14 07:05:55;;;;;;;9.65;6.13;;;;;;;;;;5023875;28;20032;-72
2023/08/14 07:08:24;;;;;;;11.32;6.13;;;;;;;;;;5025633;28;20119;-71
2023/08/14 07:10:50;;;;;;;10.75;6.30;;;;;;;;;;5021893;28;20061;-72
2023/08/14 07:13:16;;;;;;;7.93;6.05;;;;;;;;;;5034315;28;20022;-72
2023/08/14 07:15:42;;;;;;;15.68;7.97;;;;;;;;;;5027510;28;20033;-73
2023/08/14 07:18:08;;;;;;;63.92;42.13;;;;;;;;;;5043627;28;20033;-74
2023/08/14 07:20:34;;;;;;;9.15;5.72;;;;;;;;;;5048462;28;20505;-75
2023/08/14 07:23:00;;;;;;;8.93;5.43;;;;;;;;;;5021808;28;20025;-73
2023/08/14 07:25:26;;;;;;;8.60;5.13;;;;;;;;;;5025835;28;20034;-72
2023/08/14 07:27:53;;;;;;;9.90;4.55;;;;;;;;;;5025548;28;20449;-73
2023/08/14 07:30:19;;;;;;;6.93;4.07;;;;;;;;;;5025173;28;20083;-73
2023/08/14 07:32:45;;;;;;;8.05;3.83;;;;;;;;;;5041610;28;20057;-73
2023/08/14 07:35:12;;;;;;;5.15;3.42;;;;;;;;;;4997712;28;20029;-74
2023/08/14 07:37:38;;;;;;;5.10;3.08;;;;;;;;;;5027550;28;20108;-74
2023/08/14 07:40:06;;;;;;;8.70;4.35;;;;;;;;;;5036606;28;20136;-72
2023/08/14 07:42:32;;;;;;;4.18;3.17;;;;;;;;;;5013360;28;20030;-72
2023/08/14 07:44:58;;;;;;;8.50;4.03;;;;;;;;;;5027180;28;20091;-72
2023/08/14 07:47:24;;;;;;;6.25;3.00;;;;;;;;;;5025731;28;20068;-71
2023/08/14 07:49:50;;;;;;;6.13;3.05;;;;;;;;;;5034110;28;20057;-73
2023/08/14 07:52:16;;;;;;;7.13;3.08;;;;;;;;;;5025560;28;20029;-71
2023/08/14 07:54:42;;;;;;;6.10;3.20;;;;;;;;;;5031159;28;20018;-71
2023/08/14 07:57:08;;;;;;;14.35;8.40;;;;;;;;;;5029659;28;20534;-78
2023/08/14 07:59:34;;;;;;;51.60;32.13;;;;;;;;;;5031041;28;20069;-78
2023/08/14 08:02:00;;;;;;;7.97;4.88;;;;;;;;;;5019174;28;20044;-74
2023/08/14 08:04:29;;;;;;;9.85;3.92;;;;;;;;;;5031352;28;20117;-75
2023/08/14 08:06:55;;;;;;;5.55;3.15;;;;;;;;;;5028747;28;20036;-73
2023/08/14 08:09:21;;;;;;;8.43;3.75;;;;;;;;;;5031135;28;20087;-72
2023/08/14 08:11:47;;;;;;;4.80;3.00;;;;;;;;;;5034096;28;20048;-72
2023/08/14 08:14:13;;;;;;;4.32;2.33;;;;;;;;;;5030534;28;20129;-72
2023/08/14 08:16:39;;;;;;;9.52;2.50;;;;;;;;;;5030491;28;20108;-72
2023/08/14 08:19:07;;;;;;;3.92;1.73;;;;;;;;;;5029217;28;20045;-72
2023/08/14 08:21:33;;;;;;;5.90;1.90;;;;;;;;;;5029966;28;20037;-73
2023/08/14 08:23:59;;;;;;;3.85;1.80;;;;;;;;;;5028803;28;20242;-72
2023/08/14 08:26:26;;;;;;;7.47;1.90;;;;;;;;;;5029991;28;20033;-73
2023/08/14 08:28:52;;;;;;;4.57;2.00;;;;;;;;;;5028299;28;20030;-73
2023/08/14 08:31:18;;;;;;;4.88;2.00;;;;;;;;;;5028183;28;20437;-72
2023/08/14 08:33:44;;;;;;;3.25;1.60;;;;;;;;;;5026996;28;20033;-72
2023/08/14 08:36:10;;;;;;;6.22;1.60;;;;;;;;;;5029425;28;20033;-74
2023/08/14 08:38:36;;;;;;;3.35;1.40;;;;;;;;;;5030182;28;20216;-73
2023/08/14 08:41:03;;;;;;;6.60;1.80;;;;;;;;;;5029708;28;20064;-73
2023/08/14 08:43:29;;;;;;;5.30;1.20;;;;;;;;;;5029555;28;20253;-73
2023/08/14 08:45:58;;;;;;;3.90;1.13;;;;;;;;;;5022807;28;20084;-73
2023/08/14 08:48:24;;;;;;;4.25;1.20;;;;;;;;;;5034572;28;20224;-73
2023/08/14 08:50:51;;;;;;;3.55;1.35;;;;;;;;;;5029778;28;20033;-73
2023/08/14 08:53:20;;;;;;;7.53;1.65;;;;;;;;;;5029831;28;20550;-73
2023/08/14 08:55:50;;;;;;;7.20;1.02;;;;;;;;;;5028932;28;20061;-74
2023/08/14 08:58:16;;;;;;;3.78;1.10;;;;;;;;;;5028257;28;20059;-73
2023/08/14 09:00:43;;;;;;;3.42;0.90;;;;;;;;;;5025566;28;20376;-74
2023/08/14 09:03:09;;;;;;;5.72;1.20;;;;;;;;;;5028885;28;20482;-74
2023/08/14 09:05:36;;;;;;;2.47;0.90;;;;;;;;;;5020355;28;20511;-73
2023/08/14 09:08:02;;;;;;;3.20;1.05;;;;;;;;;;5027687;28;20364;-73
2023/08/14 09:10:29;;;;;;;3.65;1.48;;;;;;;;;;5030103;28;20100;-73
2023/08/14 09:12:56;;;;;;;4.82;1.30;;;;;;;;;;5029421;28;20183;-73
2023/08/14 09:15:23;;;;;;;4.07;1.23;;;;;;;;;;5021707;28;20033;-73
2023/08/14 09:17:53;;;;;;;2.08;1.00;;;;;;;;;;5027109;28;20041;-73
2023/08/14 09:20:20;;;;;;;5.32;1.13;;;;;;;;;;5027849;28;20175;-73
2023/08/14 09:22:46;;;;;;;2.53;0.90;;;;;;;;;;5027979;28;20024;-73
2023/08/14 09:25:12;;;;;;;4.22;1.00;;;;;;;;;;5028551;28;20030;-73
2023/08/14 09:27:38;;;;;;;3.17;0.93;;;;;;;;;;5028940;28;20388;-74
2023/08/14 09:30:06;;;;;;;3.95;0.85;;;;;;;;;;5026383;28;20107;-73
2023/08/14 09:32:32;;;;;;;2.00;0.90;;;;;;;;;;5018946;28;20033;-73
2023/08/14 09:35:02;;;;;;;3.00;1.08;;;;;;;;;;5027876;28;20472;-73
2023/08/14 09:37:28;;;;;;;2.70;0.73;;;;;;;;;;5027132;28;20029;-74
2023/08/14 09:40:13;;;;;;;1.88;0.70;;;;;;;;;;5022552;28;20513;-76
2023/08/14 09:42:39;;;;;;;2.70;1.75;;;;;;;;;;5027981;28;20028;-76
2023/08/14 09:45:06;;;;;;;4.25;1.67;;;;;;;;;;5028799;28;20029;-75
2023/08/14 09:47:32;;;;;;;4.13;0.88;;;;;;;;;;5023462;28;20170;-75
2023/08/14 09:49:59;;;;;;;5.60;1.00;;;;;;;;;;5019119;28;20116;-75
2023/08/14 09:52:26;;;;;;;2.50;1.00;;;;;;;;;;5024318;28;20033;-75
2023/08/14 09:54:54;;;;;;;3.53;0.77;;;;;;;;;;5024787;28;20018;-74
2023/08/14 09:57:24;;;;;;;3.28;0.65;;;;;;;;;;5018560;28;20021;-74
2023/08/14 09:59:50;;;;;;;3.42;1.08;;;;;;;;;;5022708;28;20099;-74
2023/08/14 10:02:17;;;;;;;2.80;1.00;;;;;;;;;;5016356;28;20029;-74
2023/08/14 10:04:44;;;;;;;3.75;0.82;;;;;;;;;;5021425;28;20268;-74
2023/08/14 10:07:10;;;;;;;2.83;0.90;;;;;;;;;;5021712;28;20104;-76
2023/08/14 10:09:38;;;;;;;1.83;0.82;;;;;;;;;;5021816;28;20056;-73
2023/08/14 10:12:09;;;;;;;7.13;3.75;;;;;;;;;;5022126;28;20472;-72
2023/08/14 10:14:36;;;;;;;2.63;1.07;;;;;;;;;;5026273;28;20037;-72
2023/08/14 10:17:04;;;;;;;5.90;2.08;;;;;;;;;;5019723;28;20045;-71
2023/08/14 10:19:32;;;;;;;4.07;1.10;;;;;;;;;;5023532;28;20048;-71
2023/08/14 10:21:58;;;;;;;4.80;1.02;;;;;;;;;;5022837;28;20465;-70
2023/08/14 10:24:27;;;;;;;4.25;1.00;;;;;;;;;;5018282;28;20493;-71
2023/08/14 10:26:53;;;;;;;3.08;1.00;;;;;;;;;;5021200;28;20033;-71
2023/08/14 10:29:20;;;;;;;2.35;0.70;;;;;;;;;;5019643;28;20094;-73
2023/08/14 10:31:46;;;;;;;2.65;0.88;;;;;;;;;;5019319;28;20029;-71
2023/08/14 10:34:14;;;;;;;4.82;1.17;;;;;;;;;;5022204;28;20067;-72
2023/08/14 10:36:40;;;;;;;2.25;0.82;;;;;;;;;;5019526;28;20112;-72
2023/08/14 10:39:09;;;;;;;3.03;1.10;;;;;;;;;;5022404;28;20114;-75
2023/08/14 10:41:35;;;;;;;6.78;1.70;;;;;;;;;;5021764;28;20041;-72
2023/08/14 10:44:08;;;;;;;8.88;6.15;;;;;;;;;;5026555;28;20036;-71
2023/08/14 10:46:40;;;;;;;2.72;1.20;;;;;;;;;;5015819;28;20376;-72
2023/08/14 10:49:06;;;;;;;4.57;0.88;;;;;;;;;;5017820;28;20227;-71
2023/08/14 10:51:33;;;;;;;2.08;0.90;;;;;;;;;;5015390;28;20116;-71
2023/08/14 10:54:12;;;;;;;6.13;1.23;;;;;;;;;;5020213;28;20598;-70
2023/08/14 10:56:42;;;;;;;2.80;0.95;;;;;;;;;;5020441;28;20063;-72
2023/08/14 10:59:19;;;;;;;4.22;0.93;;;;;;;;;;5030956;28;20286;-72
2023/08/14 11:01:49;;;;;;;4.85;1.10;;;;;;;;;;5019696;28;20033;-71
2023/08/14 11:04:15;;;;;;;2.95;0.98;;;;;;;;;;5017978;28;20026;-72
2023/08/14 11:07:00;;;;;;;7.03;1.77;;;;;;;;;;5016909;28;20034;-74
2023/08/14 11:09:32;;;;;;;2.75;0.90;;;;;;;;;;5014762;28;20048;-73
2023/08/14 11:12:01;;;;;;;4.85;1.25;;;;;;;;;;5023710;28;20574;-71
2023/08/14 11:14:27;;;;;;;4.32;1.13;;;;;;;;;;5026651;28;20033;-71
2023/08/14 11:16:53;;;;;;;3.55;0.85;;;;;;;;;;5036388;28;20028;-71
2023/08/14 11:19:19;;;;;;;4.90;1.20;;;;;;;;;;5025945;28;20107;-72
2023/08/14 11:21:46;;;;;;;3.58;1.30;;;;;;;;;;5023499;28;20037;-71
2023/08/14 11:24:13;;;;;;;2.95;0.80;;;;;;;;;;5029446;28;20102;-73
2023/08/14 11:26:39;;;;;;;4.55;1.15;;;;;;;;;;5031212;28;20053;-72
2023/08/14 11:29:05;;;;;;;3.95;0.95;;;;;;;;;;5033421;28;20510;-71
2023/08/14 11:31:31;;;;;;;2.95;0.93;;;;;;;;;;5028269;28;20037;-71
2023/08/14 11:33:57;;;;;;;2.20;0.77;;;;;;;;;;5031550;28;20037;-72
2023/08/14 11:36:23;;;;;;;4.93;1.13;;;;;;;;;;5047348;28;20029;-72
2023/08/14 11:38:51;;;;;;;3.03;0.98;;;;;;;;;;5027400;28;20029;-72
2023/08/14 11:41:17;;;;;;;4.00;1.00;;;;;;;;;;5031032;28;20061;-72
2023/08/14 11:43:45;;;;;;;3.33;0.90;;;;;;;;;;5028811;28;20033;-72
2023/08/14 11:46:11;;;;;;;3.40;0.95;;;;;;;;;;5031117;28;20116;-72
2023/08/14 11:48:38;;;;;;;3.83;0.93;;;;;;;;;;5030098;28;20111;-72
2023/08/14 11:51:05;;;;;;;3.03;0.80;;;;;;;;;;5029225;28;20308;-72
2023/08/14 11:53:32;;;;;;;2.83;0.98;;;;;;;;;;5030383;28;20076;-72
2023/08/14 11:55:58;;;;;;;2.88;0.90;;;;;;;;;;5025076;28;20364;-71
2023/08/14 11:58:24;;;;;;;3.83;1.00;;;;;;;;;;5029939;28;20041;-72
2023/08/14 12:00:51;;;;;;;4.47;1.10;;;;;;;;;;5029810;28;20037;-71
2023/08/14 12:03:17;;;;;;;4.63;1.10;;;;;;;;;;5023831;28;20033;-72
2023/08/14 12:05:45;;;;;;;4.78;1.20;;;;;;;;;;5028553;28;20025;-72
2023/08/14 12:08:12;;;;;;;2.92;0.80;;;;;;;;;;5028512;28;20037;-72
2023/08/14 12:10:39;;;;;;;5.63;1.63;;;;;;;;;;5026293;28;20032;-72
2023/08/14 12:13:06;;;;;;;6.10;1.00;;;;;;;;;;5029661;28;20116;-71
2023/08/14 12:15:32;;;;;;;4.78;1.25;;;;;;;;;;5029478;28;20034;-70
2023/08/14 12:17:58;;;;;;;5.88;1.23;;;;;;;;;;5045079;28;20038;-71
2023/08/14 12:20:24;;;;;;;3.53;1.42;;;;;;;;;;5028574;28;20134;-71
2023/08/14 12:22:50;;;;;;;8.57;1.60;;;;;;;;;;5029279;28;20064;-71
2023/08/14 12:25:21;;;;;;;3.95;1.38;;;;;;;;;;5035170;28;20033;-72
2023/08/14 12:27:47;;;;;;;4.30;1.10;;;;;;;;;;5027005;28;20029;-70
2023/08/14 12:30:14;;;;;;;5.80;1.75;;;;;;;;;;5029838;28;20423;-72
2023/08/14 12:32:46;;;;;;;5.45;1.52;;;;;;;;;;5028809;28;20686;-71
2023/08/14 12:35:13;;;;;;;5.35;1.25;;;;;;;;;;5028168;28;20080;-70
2023/08/14 12:37:39;;;;;;;4.78;1.42;;;;;;;;;;5038724;28;20037;-71
2023/08/14 12:40:09;;;;;;;4.63;1.70;;;;;;;;;;5029954;28;20045;-71
2023/08/14 12:42:36;;;;;;;5.50;1.30;;;;;;;;;;5028772;28;20033;-70
2023/08/14 12:45:02;;;;;;;6.65;1.63;;;;;;;;;;5027625;28;20029;-70
2023/08/14 12:47:29;;;;;;;5.30;1.73;;;;;;;;;;5027574;28;20053;-71
2023/08/14 12:49:55;;;;;;;4.50;1.70;;;;;;;;;;5029337;28;20045;-71
2023/08/14 12:52:21;;;;;;;6.53;1.27;;;;;;;;;;5029019;28;20533;-72
2023/08/14 12:54:47;;;;;;;4.75;1.58;;;;;;;;;;5025466;28;20033;-71
2023/08/14 12:57:16;;;;;;;6.95;1.70;;;;;;;;;;5023604;28;20035;-72
2023/08/14 12:59:42;;;;;;;43.58;22.83;;;;;;;;;;5014879;28;20090;-84
2023/08/14 13:02:08;;;;;;;8.15;4.97;;;;;;;;;;5027404;28;20033;-84
2023/08/14 13:04:34;;;;;;;6.30;3.47;;;;;;;;;;5027514;28;20112;-76
2023/08/14 13:07:00;;;;;;;6.57;1.65;;;;;;;;;;5027867;28;20127;-80
2023/08/14 13:09:27;;;;;;;8.13;1.40;;;;;;;;;;5028238;28;20095;-77
2023/08/14 13:11:53;;;;;;;3.42;1.48;;;;;;;;;;5020411;28;20040;-79
2023/08/14 13:14:19;;;;;;;7.43;1.60;;;;;;;;;;5034683;28;20030;-80
2023/08/14 13:16:45;;;;;;;9.35;1.98;;;;;;;;;;5020846;28;20140;-80
2023/08/14 13:19:11;;;;;;;6.43;1.42;;;;;;;;;;5022730;28;20546;-80
2023/08/14 13:21:37;;;;;;;7.93;1.85;;;;;;;;;;5017469;28;20037;-76
2023/08/14 13:24:03;;;;;;;9.48;1.88;;;;;;;;;;5020325;28;20090;-77
2023/08/14 13:26:29;;;;;;;12.10;7.60;;;;;;;;;;5017620;28;20030;-76
2023/08/14 13:28:55;;;;;;;11.48;5.82;;;;;;;;;;5040027;28;20030;-76
2023/08/14 13:31:21;;;;;;;7.10;3.00;;;;;;;;;;5023010;28;20025;-75
2023/08/14 13:33:47;;;;;;;4.93;1.70;;;;;;;;;;5027762;28;20482;-72
2023/08/14 13:36:13;;;;;;;6.97;1.90;;;;;;;;;;5025180;28;20299;-73
2023/08/14 13:38:39;;;;;;;7.72;1.85;;;;;;;;;;5021278;28;20493;-73
2023/08/14 13:41:07;;;;;;;7.60;1.67;;;;;;;;;;5024289;28;20111;-73
2023/08/14 13:43:33;;;;;;;6.10;1.60;;;;;;;;;;5018179;28;20064;-71
2023/08/14 13:45:59;;;;;;;6.97;1.88;;;;;;;;;;5018783;28;20038;-72
2023/08/14 13:48:25;;;;;;;8.02;2.00;;;;;;;;;;5017699;28;20065;-73
2023/08/14 13:50:51;;;;;;;4.60;1.60;;;;;;;;;;5023395;28;20041;-74
2023/08/14 13:53:17;;;;;;;5.50;2.15;;;;;;;;;;5039330;28;20033;-73
2023/08/14 13:55:44;;;;;;;5.88;2.15;;;;;;;;;;5021848;28;20045;-73
2023/08/14 13:58:10;;;;;;;5.55;1.77;;;;;;;;;;5041753;28;20043;-75
2023/08/14 14:00:36;;;;;;;4.78;1.65;;;;;;;;;;5022996;28;20033;-73
2023/08/14 14:03:02;;;;;;;5.32;1.65;;;;;;;;;;5022274;28;20426;-73
2023/08/14 14:05:28;;;;;;;6.57;1.90;;;;;;;;;;5014995;28;20042;-74
2023/08/14 14:07:55;;;;;;;5.60;1.88;;;;;;;;;;5027094;28;20056;-71
2023/08/14 14:10:21;;;;;;;5.05;1.90;;;;;;;;;;5028111;28;20533;-73
2023/08/14 14:12:47;;;;;;;5.15;1.88;;;;;;;;;;5027915;28;20129;-73
2023/08/14 14:15:13;;;;;;;6.75;2.65;;;;;;;;;;5029537;28;20136;-73
2023/08/14 14:17:39;;;;;;;4.72;2.00;;;;;;;;;;5028248;28;20043;-73
2023/08/14 14:20:08;;;;;;;3.35;1.88;;;;;;;;;;5025040;28;20044;-73
2023/08/14 14:22:34;;;;;;;8.43;2.03;;;;;;;;;;5025001;28;20403;-73
2023/08/14 14:25:00;;;;;;;5.03;2.00;;;;;;;;;;5027548;28;20035;-73
2023/08/14 14:27:26;;;;;;;5.22;2.08;;;;;;;;;;5022446;28;20480;-73
2023/08/14 14:29:52;;;;;;;8.20;2.50;;;;;;;;;;5025546;28;20034;-73
2023/08/14 14:32:18;;;;;;;7.32;2.50;;;;;;;;;;5040048;28;20053;-73
2023/08/14 14:34:45;;;;;;;5.88;2.33;;;;;;;;;;5024920;28;20523;-72
2023/08/14 14:37:11;;;;;;;7.05;2.28;;;;;;;;;;5026789;28;20064;-73